»·PEaware :: N35CF KRDM-KMFR

N35CF :: KRDM-KMFR

FLIGHT INFORMATION

Flight Status: Arrived
Operator: Privately registered:
United States
More flights under this callsign
Pilot: Anonymous 18613 (18613)
Aircraft: BEECH AIRCRAFT A90-E90 KING AIR
(BE9L)
More flights by this aircraft type
Origin: KRDM Roberts
United States
Destination: KMFR Rogue Valley Intl-Medford
United States
More flights between these airports :: More routes between these airports
Route: +OED
File this flight plan on PilotEdge
Remarks:
Altitude:
(Current/Filed)
11,000ft
Speed:
(Current/Filed)
215kts
Departed: 31-Jul-18 05:50 PM
Arrived: 31-Jul-18 06:33 PM
Distance/Time
Traveled:
136nm/0:43
Distance/Time
To Go:
Arrived

Flight Plot

Page will automatically refresh every two minutes.

Flight plan parsing failed; only flown route is shown


Map Options




Map Legend


Flown Route
Filed Route
Departure Airport
Arrival Airport
Navaid (VOR, NDB)
Fix

Horizontal Profiles

Position Reports

Time Latitude Longitude Heading Altitude Ground
Speed
31-Jul-18 17:38 44.258940 -121.138724 240 3080ft 0kts
31-Jul-18 17:39 44.258940 -121.138724 240 3080ft 0kts
31-Jul-18 17:40 44.258940 -121.138724 240 3080ft 0kts
31-Jul-18 17:41 44.258940 -121.138724 240 3080ft 0kts
31-Jul-18 17:42 44.258940 -121.138724 240 3080ft 0kts
31-Jul-18 17:43 44.258940 -121.138724 240 3080ft 0kts
31-Jul-18 17:44 44.258940 -121.138724 240 3080ft 0kts
31-Jul-18 17:45 44.258940 -121.138724 240 3080ft 0kts
31-Jul-18 17:46 44.258940 -121.138724 240 3080ft 0kts
31-Jul-18 17:47 44.258940 -121.138724 240 3080ft 0kts
31-Jul-18 17:48 44.258940 -121.138724 240 3080ft 0kts
31-Jul-18 17:49 44.258940 -121.138724 240 3080ft 0kts
31-Jul-18 17:50 44.258940 -121.138724 240 3080ft 0kts
31-Jul-18 17:51 44.248199 -121.164999 242 3619ft 131kts
31-Jul-18 17:52 44.225664 -121.215858 241 4857ft 156kts
31-Jul-18 17:53 44.201772 -121.265724 238 6352ft 154kts
31-Jul-18 17:54 44.176945 -121.313785 235 7774ft 152kts
31-Jul-18 17:55 44.151230 -121.360169 232 9127ft 151kts
31-Jul-18 17:56 44.124730 -121.404938 227 10400ft 150kts
31-Jul-18 17:57 44.094188 -121.443771 219 11598ft 149kts
31-Jul-18 17:58 44.061222 -121.478504 215 12740ft 148kts
31-Jul-18 17:59 44.024312 -121.514366 214 13029ft 184kts
31-Jul-18 18:00 43.979523 -121.556379 213 13025ft 202kts
31-Jul-18 18:01 43.931991 -121.600050 213 13024ft 206kts
31-Jul-18 18:02 43.884873 -121.643267 213 13027ft 208kts
31-Jul-18 18:03 43.837339 -121.686455 212 13029ft 209kts
31-Jul-18 18:04 43.788801 -121.730715 213 13028ft 209kts
31-Jul-18 18:05 43.740164 -121.775063 213 13028ft 209kts
31-Jul-18 18:06 43.691642 -121.819241 213 13028ft 209kts
31-Jul-18 18:07 43.642923 -121.863517 213 13028ft 209kts
31-Jul-18 18:08 43.594277 -121.907641 213 13027ft 209kts
31-Jul-18 18:09 43.545635 -121.951675 213 13027ft 209kts
31-Jul-18 18:10 43.497004 -121.995613 213 13025ft 209kts
31-Jul-18 18:11 43.448356 -122.039480 213 13014ft 209kts
31-Jul-18 18:12 43.399645 -122.083290 212 12997ft 209kts
31-Jul-18 18:13 43.350978 -122.126980 213 12973ft 210kts
31-Jul-18 18:14 43.302144 -122.170729 213 12956ft 209kts
31-Jul-18 18:15 43.253271 -122.214427 213 12950ft 209kts
31-Jul-18 18:16 43.204576 -122.257889 213 12944ft 209kts
31-Jul-18 18:17 43.155821 -122.301320 213 12840ft 214kts
31-Jul-18 18:18 43.101521 -122.349763 213 11353ft 239kts
31-Jul-18 18:19 43.047560 -122.397686 213 10941ft 222kts
31-Jul-18 18:20 42.996977 -122.442469 213 10942ft 214kts
31-Jul-18 18:21 42.947158 -122.486475 213 10943ft 214kts
31-Jul-18 18:22 42.897413 -122.530245 213 10436ft 233kts
31-Jul-18 18:23 42.842912 -122.577563 213 9167ft 232kts
31-Jul-18 18:24 42.789839 -122.626670 216 7989ft 231kts
31-Jul-18 18:25 42.738831 -122.673911 215 7944ft 221kts
31-Jul-18 18:26 42.688314 -122.720922 215 7946ft 219kts
31-Jul-18 18:27 42.638156 -122.767616 215 7947ft 218kts
31-Jul-18 18:28 42.587284 -122.814733 215 7073ft 221kts
31-Jul-18 18:29 42.535655 -122.859756 206 6087ft 222kts
31-Jul-18 18:30 42.480474 -122.883409 165 5939ft 206kts
31-Jul-18 18:31 42.425999 -122.846781 162 4762ft 237kts
31-Jul-18 18:32 42.363220 -122.830131 174 3272ft 222kts
31-Jul-18 18:33 42.345607 -122.857714 332 2139ft 132kts
31-Jul-18 18:34 42.368460 -122.869955 331 1336ft 31kts
31-Jul-18 18:35 42.367719 -122.871049 158 1336ft 26kts
31-Jul-18 18:36 42.367096 -122.871526 250 1336ft 0kts
31-Jul-18 18:37 42.367096 -122.871526 250 1336ft 0kts

Navigation Log

Ident Type
Flight plan parsing failed, navigation log unavailable